Time;durP1;ratioP1;P1;durP2;ratioP2;P2;SDS_P1;SDS_P2;PMS_P1;PMS_P2;Temp;Humidity;BMP_temperature;BMP_pressure;BME280_temperature;BME280_humidity;BME280_pressure;Samples;Min_cycle;Max_cycle;Signal;HPM_P1;HPM_P2
2022/11/16 00:00:34;;;;;;;9.43;6.47;;;11.30;82.40;;;;;;5073837;28;20242;-79
2022/11/16 00:03:04;;;;;;;8.73;7.35;;;11.30;82.60;;;;;;5097031;28;20074;-79
2022/11/16 00:05:30;;;;;;;9.50;6.93;;;11.30;83.10;;;;;;5093746;28;20050;-78
2022/11/16 00:07:56;;;;;;;9.00;7.70;;;11.20;82.60;;;;;;5077227;28;20123;-79
2022/11/16 00:10:22;;;;;;;8.77;6.97;;;11.20;82.70;;;;;;5094084;28;20036;-79
2022/11/16 00:12:48;;;;;;;10.30;7.47;;;11.20;82.80;;;;;;5094334;28;20028;-79
2022/11/16 00:15:14;;;;;;;9.32;7.28;;;11.20;82.90;;;;;;5094562;28;20043;-78
2022/11/16 00:17:39;;;;;;;8.20;7.00;;;11.30;83.00;;;;;;5076662;28;20462;-79
2022/11/16 00:20:05;;;;;;;9.13;7.40;;;11.30;83.10;;;;;;5094214;28;20048;-79
2022/11/16 00:22:31;;;;;;;9.73;7.25;;;11.20;83.10;;;;;;5093714;28;20040;-78
2022/11/16 00:24:57;;;;;;;8.88;7.40;;;11.30;83.30;;;;;;5093731;28;20386;-79
2022/11/16 00:27:22;;;;;;;9.68;7.88;;;11.30;83.30;;;;;;5093816;28;20460;-79
2022/11/16 00:29:48;;;;;;;9.98;7.38;;;11.20;83.20;;;;;;5094108;28;20459;-78
2022/11/16 00:32:14;;;;;;;10.13;8.38;;;11.30;83.30;;;;;;5093938;28;20047;-80
2022/11/16 00:34:39;;;;;;;9.65;8.50;;;11.20;83.30;;;;;;5076896;28;20040;-78
2022/11/16 00:37:05;;;;;;;10.85;7.72;;;11.30;83.50;;;;;;5093438;28;20048;-79
2022/11/16 00:39:31;;;;;;;10.27;8.35;;;11.30;83.50;;;;;;5093477;28;20048;-79
2022/11/16 00:41:56;;;;;;;10.73;9.15;;;11.40;83.60;;;;;;5093590;28;20044;-79
2022/11/16 00:44:22;;;;;;;11.95;8.68;;;11.30;83.60;;;;;;5093316;28;20048;-78
2022/11/16 00:46:48;;;;;;;9.20;7.68;;;11.30;83.60;;;;;;5076434;28;20394;-79
2022/11/16 00:49:13;;;;;;;10.80;8.35;;;11.30;83.70;;;;;;5076677;28;20111;-79
2022/11/16 00:51:39;;;;;;;13.57;9.45;;;11.40;83.70;;;;;;5093223;28;20490;-79
2022/11/16 00:54:06;;;;;;;10.85;8.55;;;11.30;83.70;;;;;;5093191;28;20032;-78
2022/11/16 00:56:32;;;;;;;10.10;8.32;;;11.30;83.90;;;;;;5093191;28;20039;-78
2022/11/16 00:58:58;;;;;;;10.45;8.65;;;11.40;84.00;;;;;;5092891;28;20122;-78
2022/11/16 01:01:23;;;;;;;11.25;9.40;;;11.40;84.10;;;;;;5075706;28;20039;-78
2022/11/16 01:03:49;;;;;;;11.32;9.65;;;11.40;84.10;;;;;;5075781;28;20036;-78
2022/11/16 01:06:16;;;;;;;11.40;9.43;;;11.40;84.20;;;;;;5092784;28;20040;-79
2022/11/16 01:08:42;;;;;;;11.88;9.18;;;11.30;84.60;;;;;;5076314;28;20080;-78
2022/11/16 01:13:54;;;;;;;13.38;9.90;;;11.40;84.30;;;;;;5064407;28;20044;-78
2022/11/16 01:16:21;;;;;;;11.50;10.27;;;11.40;84.40;;;;;;5059332;28;20047;-78
2022/11/16 01:18:49;;;;;;;12.80;10.13;;;11.40;84.40;;;;;;5076144;28;20391;-78
2022/11/16 01:21:15;;;;;;;13.00;10.65;;;11.40;84.40;;;;;;5076122;28;20418;-78
2022/11/16 01:23:41;;;;;;;16.58;11.07;;;11.40;84.50;;;;;;5075417;28;20043;-78
2022/11/16 01:26:07;;;;;;;17.23;10.85;;;11.40;84.50;;;;;;5075807;28;20028;-78
2022/11/16 01:28:33;;;;;;;12.40;10.30;;;11.40;84.60;;;;;;5092713;28;20067;-78
2022/11/16 01:30:59;;;;;;;12.98;10.85;;;11.40;84.60;;;;;;5092491;28;20054;-78
2022/11/16 01:33:25;;;;;;;14.05;10.90;;;11.40;84.70;;;;;;5092619;28;20032;-78
2022/11/16 01:35:50;;;;;;;13.07;11.13;;;11.40;84.70;;;;;;5092524;28;20123;-78
2022/11/16 01:38:16;;;;;;;14.77;11.60;;;11.40;84.70;;;;;;5058944;28;20098;-78
2022/11/16 01:40:42;;;;;;;13.00;11.60;;;11.40;84.70;;;;;;5075828;28;20036;-79
2022/11/16 01:43:17;;;;;;;13.35;11.45;;;11.40;84.80;;;;;;5075314;28;20398;-78
2022/11/16 01:45:43;;;;;;;15.25;11.90;;;11.40;84.90;;;;;;5092245;28;20046;-78
2022/11/16 01:48:24;;;;;;;14.95;12.30;;;11.40;84.90;;;;;;5075375;28;20040;-78
2022/11/16 01:50:51;;;;;;;13.75;11.82;;;11.40;85.00;;;;;;5092221;28;20449;-78
2022/11/16 01:53:17;;;;;;;15.25;12.18;;;11.40;84.90;;;;;;5092038;28;20082;-78
2022/11/16 01:55:45;;;;;;;17.27;13.13;;;11.40;85.00;;;;;;5075452;28;20072;-78
2022/11/16 01:58:15;;;;;;;16.17;13.32;;;11.40;85.00;;;;;;5072101;28;20048;-78
2022/11/16 02:00:41;;;;;;;17.02;13.30;;;11.40;85.20;;;;;;5074847;28;20488;-78
2022/11/16 02:03:07;;;;;;;17.10;13.55;;;11.40;85.20;;;;;;5092108;28;20067;-78
2022/11/16 02:05:47;;;;;;;17.88;13.88;;;11.40;85.20;;;;;;5074428;28;20036;-71
2022/11/16 02:11:44;;;;;;;17.90;14.25;;;11.50;85.40;;;;;;5075957;28;20089;-71
2022/11/16 02:14:22;;;;;;;16.60;14.52;;;11.40;85.50;;;;;;5097113;28;20385;-71
2022/11/16 02:17:21;;;;;;;18.02;14.65;;;11.40;85.50;;;;;;5078084;28;20035;-72
2022/11/16 02:20:07;;;;;;;18.02;14.05;;;11.50;85.60;;;;;;5095250;28;20455;-72
2022/11/16 02:23:07;;;;;;;17.20;14.27;;;11.50;85.60;;;;;;5077765;28;20040;-72
2022/11/16 02:25:56;;;;;;;16.55;13.43;;;11.50;85.60;;;;;;5091272;28;20047;-72
2022/11/16 02:28:43;;;;;;;16.40;13.73;;;11.50;85.70;;;;;;5049967;28;20047;-72
2022/11/16 02:31:14;;;;;;;17.02;14.30;;;11.50;85.70;;;;;;5094957;28;20144;-72
2022/11/16 02:33:41;;;;;;;16.25;13.38;;;11.50;85.70;;;;;;5094652;28;20062;-71
2022/11/16 02:36:11;;;;;;;17.30;13.73;;;11.50;85.80;;;;;;5094986;28;20103;-72
2022/11/16 02:38:41;;;;;;;16.83;13.45;;;11.50;85.80;;;;;;5094865;28;20032;-72
2022/11/16 02:41:15;;;;;;;15.25;13.02;;;11.50;85.80;;;;;;5077878;28;20097;-72
2022/11/16 02:43:44;;;;;;;18.67;13.82;;;11.50;85.90;;;;;;5078112;28;20050;-72
2022/11/16 02:46:25;;;;;;;19.98;15.30;;;11.50;85.90;;;;;;5077406;28;20048;-72
2022/11/16 02:48:56;;;;;;;16.70;13.52;;;11.50;86.00;;;;;;5094379;28;20115;-72
2022/11/16 02:51:24;;;;;;;17.30;14.02;;;11.50;86.00;;;;;;5094566;28;20055;-72
2022/11/16 02:54:13;;;;;;;17.05;13.73;;;11.50;85.90;;;;;;5094844;28;20093;-72
2022/11/16 02:57:11;;;;;;;16.13;13.75;;;11.50;86.00;;;;;;5094534;28;20043;-72
2022/11/16 02:59:56;;;;;;;16.75;13.23;;;11.60;86.10;;;;;;5060993;28;20079;-72
2022/11/16 03:03:08;;;;;;;16.25;12.82;;;11.50;86.00;;;;;;5093830;28;20721;-72
2022/11/16 03:05:46;;;;;;;16.42;13.00;;;11.50;85.90;;;;;;5050681;28;20095;-72
2022/11/16 03:08:22;;;;;;;16.08;13.07;;;11.50;86.00;;;;;;5094558;28;20043;-72
2022/11/16 03:13:40;;;;;;;16.83;12.55;;;11.50;86.10;;;;;;5093728;28;20067;-72
2022/11/16 03:16:14;;;;;;;16.90;12.68;;;11.50;86.10;;;;;;5057327;28;20036;-72
2022/11/16 03:18:42;;;;;;;17.48;13.00;;;11.50;86.10;;;;;;5092959;28;20065;-73
2022/11/16 03:21:36;;;;;;;16.67;12.70;;;11.50;86.10;;;;;;5094390;28;20040;-72
2022/11/16 03:24:02;;;;;;;18.33;13.65;;;11.60;86.20;;;;;;5087550;28;20044;-72
2022/11/16 03:26:34;;;;;;;16.90;12.77;;;11.50;86.10;;;;;;5073624;28;20097;-72
2022/11/16 03:29:12;;;;;;;15.88;11.88;;;11.60;86.20;;;;;;5077397;28;20103;-72
2022/11/16 03:31:53;;;;;;;15.20;12.10;;;11.60;86.20;;;;;;5094009;28;20407;-72
2022/11/16 03:34:24;;;;;;;14.35;12.32;;;11.60;86.30;;;;;;5093434;28;20044;-72
2022/11/16 03:36:51;;;;;;;16.70;12.75;;;11.50;86.10;;;;;;5093448;28;20110;-72
2022/11/16 03:39:27;;;;;;;14.77;12.60;;;11.60;86.20;;;;;;5094043;28;20390;-72
2022/11/16 03:41:55;;;;;;;15.25;12.25;;;11.60;86.30;;;;;;5093302;28;20055;-72
2022/11/16 03:44:20;;;;;;;15.48;12.65;;;11.60;86.30;;;;;;5076415;28;20530;-72
2022/11/16 03:46:47;;;;;;;14.55;11.80;;;11.60;86.30;;;;;;5093083;28;20047;-72
2022/11/16 03:49:12;;;;;;;14.57;11.52;;;11.60;86.30;;;;;;5085674;28;20075;-72
2022/11/16 03:51:38;;;;;;;15.13;13.43;;;11.60;86.40;;;;;;5093351;28;20044;-72
2022/11/16 03:54:04;;;;;;;14.88;12.95;;;11.60;86.30;;;;;;5093097;28;20116;-72
2022/11/16 03:56:30;;;;;;;16.35;12.95;;;11.60;86.40;;;;;;5056582;28;20044;-72
2022/11/16 03:58:56;;;;;;;15.10;13.38;;;11.60;86.40;;;;;;5077417;28;20039;-72
2022/11/16 04:01:21;;;;;;;16.75;13.50;;;11.60;86.50;;;;;;5093629;28;20458;-73
2022/11/16 04:03:47;;;;;;;14.32;12.43;;;11.60;86.50;;;;;;5092600;28;20506;-72
2022/11/16 04:25:50;;;;;;;15.27;13.23;;;11.60;86.60;;;;;;5090684;28;20083;-72
2022/11/16 04:28:19;;;;;;;15.40;13.73;;;11.60;86.60;;;;;;5076131;28;20044;-72
2022/11/16 04:39:07;;;;;;;14.48;12.82;;;11.60;86.70;;;;;;5092666;28;21622;-72
2022/11/16 04:44:18;;;;;;;15.60;14.00;;;11.60;86.80;;;;;;5084531;28;20391;-72
2022/11/16 04:49:28;;;;;;;16.02;14.30;;;11.60;86.80;;;;;;5093285;28;20036;-72
2022/11/16 04:51:54;;;;;;;14.93;13.32;;;11.60;86.80;;;;;;5092454;28;20472;-72
2022/11/16 04:54:20;;;;;;;15.13;13.20;;;11.60;86.70;;;;;;5075098;28;20036;-72
2022/11/16 04:56:45;;;;;;;15.25;13.55;;;11.60;86.70;;;;;;5092798;28;20083;-72
2022/11/16 04:59:11;;;;;;;17.40;14.45;;;11.60;87.20;;;;;;5092403;28;20044;-72
2022/11/16 05:04:21;;;;;;;16.30;14.20;;;11.60;86.80;;;;;;5092177;28;20127;-72
2022/11/16 05:06:46;;;;;;;16.80;14.38;;;11.60;86.80;;;;;;5091722;28;20527;-72
2022/11/16 05:09:13;;;;;;;17.13;14.57;;;11.60;86.90;;;;;;5075074;28;20040;-72
2022/11/16 05:11:38;;;;;;;16.48;14.63;;;11.60;86.90;;;;;;5074986;28;20035;-72
2022/11/16 05:14:05;;;;;;;16.10;14.35;;;11.70;87.10;;;;;;5074578;28;20032;-72
2022/11/16 05:16:32;;;;;;;15.15;13.60;;;11.60;86.90;;;;;;5074947;28;20039;-72
2022/11/16 05:21:42;;;;;;;16.42;14.70;;;11.60;86.90;;;;;;5091797;28;20043;-72
2022/11/16 05:26:52;;;;;;;17.10;15.30;;;11.60;87.00;;;;;;5091461;28;20043;-72
2022/11/16 05:29:18;;;;;;;20.17;16.70;;;11.60;87.00;;;;;;5074743;28;20036;-72
2022/11/16 05:31:44;;;;;;;18.13;15.82;;;11.60;87.10;;;;;;5074559;28;20047;-72
2022/11/16 05:34:09;;;;;;;17.77;15.82;;;11.60;87.20;;;;;;5091481;28;20075;-72
2022/11/16 05:36:35;;;;;;;20.80;17.63;;;11.60;87.10;;;;;;5091512;28;20043;-72
2022/11/16 05:39:01;;;;;;;19.67;16.25;;;11.60;87.60;;;;;;5074628;28;20044;-72
2022/11/16 05:41:27;;;;;;;19.08;16.80;;;11.60;87.20;;;;;;5091614;28;20042;-72
2022/11/16 05:43:54;;;;;;;18.88;15.95;;;11.60;87.20;;;;;;5091215;28;20400;-72
2022/11/16 05:46:19;;;;;;;17.08;15.27;;;11.70;87.30;;;;;;5074255;28;20047;-72
2022/11/16 05:48:45;;;;;;;17.33;15.52;;;11.60;87.30;;;;;;5091017;28;20046;-72
2022/11/16 05:51:11;;;;;;;18.40;15.52;;;11.70;87.30;;;;;;5058296;28;20048;-72
2022/11/16 05:53:36;;;;;;;18.45;16.30;;;11.70;87.30;;;;;;5073842;28;20028;-72
2022/11/16 05:56:02;;;;;;;18.73;16.08;;;11.70;87.30;;;;;;5074135;28;20127;-72
2022/11/16 05:58:28;;;;;;;19.17;16.48;;;11.70;87.30;;;;;;5098609;28;20051;-72
2022/11/16 06:00:54;;;;;;;18.27;14.90;;;11.70;87.30;;;;;;5090979;28;20650;-72
2022/11/16 06:03:19;;;;;;;16.75;14.27;;;11.70;87.30;;;;;;5090267;28;20463;-72
2022/11/16 06:05:45;;;;;;;16.42;14.68;;;11.70;87.30;;;;;;5090792;28;20040;-72
2022/11/16 06:08:11;;;;;;;16.65;13.52;;;11.70;87.30;;;;;;5074594;28;20036;-72
2022/11/16 06:10:36;;;;;;;15.02;13.35;;;11.70;87.30;;;;;;5091418;28;20182;-72
2022/11/16 06:13:02;;;;;;;15.98;13.98;;;11.70;87.20;;;;;;5073293;28;20384;-72
2022/11/16 06:15:28;;;;;;;15.23;13.63;;;11.70;87.20;;;;;;5090842;28;20048;-73
2022/11/16 06:17:53;;;;;;;15.95;13.55;;;11.70;87.20;;;;;;5090965;28;20032;-77
2022/11/16 06:20:19;;;;;;;16.42;13.50;;;11.70;87.20;;;;;;5058096;28;20448;-77
2022/11/16 06:22:45;;;;;;;14.35;12.55;;;11.70;87.20;;;;;;5074469;28;20036;-76
2022/11/16 06:25:10;;;;;;;15.73;13.77;;;11.70;87.20;;;;;;5074553;28;20067;-76
2022/11/16 06:27:39;;;;;;;18.15;13.77;;;11.70;87.20;;;;;;5090654;28;20028;-76
2022/11/16 06:30:06;;;;;;;15.80;13.52;;;11.80;87.20;;;;;;5058344;28;20391;-77
2022/11/16 06:32:32;;;;;;;14.48;12.52;;;11.70;87.20;;;;;;5073462;28;20514;-77
2022/11/16 06:34:58;;;;;;;16.10;13.43;;;11.70;87.20;;;;;;5074656;28;20051;-76
2022/11/16 06:37:24;;;;;;;16.52;13.10;;;11.70;87.10;;;;;;5056851;28;20481;-72
2022/11/16 06:39:50;;;;;;;14.48;12.88;;;11.70;87.10;;;;;;5074138;28;20066;-73
2022/11/16 06:42:16;;;;;;;15.38;13.27;;;11.70;87.10;;;;;;5057568;28;20468;-73
2022/11/16 06:44:41;;;;;;;14.82;12.35;;;11.70;87.00;;;;;;5085939;28;20040;-73
2022/11/16 06:47:07;;;;;;;13.70;11.85;;;11.70;87.00;;;;;;5054573;28;20402;-72
2022/11/16 06:49:33;;;;;;;12.73;10.70;;;11.70;87.50;;;;;;5073283;28;20474;-72
2022/11/16 06:51:58;;;;;;;13.98;10.93;;;11.70;87.00;;;;;;5082738;28;20028;-72
2022/11/16 06:54:24;;;;;;;13.02;9.82;;;11.70;87.00;;;;;;5090333;28;20036;-72
2022/11/16 06:56:49;;;;;;;12.05;9.80;;;11.70;87.00;;;;;;5072871;28;20395;-72
2022/11/16 06:59:15;;;;;;;11.23;9.60;;;11.80;87.00;;;;;;5075044;28;20043;-72
2022/11/16 07:01:41;;;;;;;11.40;8.23;;;11.70;87.40;;;;;;5059891;28;20049;-72
2022/11/16 07:04:10;;;;;;;9.48;8.25;;;11.70;86.90;;;;;;5077602;28;20032;-72
2022/11/16 07:06:37;;;;;;;9.48;7.47;;;11.70;86.80;;;;;;5093762;28;20104;-73
2022/11/16 07:09:07;;;;;;;11.25;7.03;;;11.70;86.80;;;;;;5094604;28;20483;-72
2022/11/16 07:11:34;;;;;;;8.63;6.72;;;11.70;86.80;;;;;;5077699;28;20036;-72
2022/11/16 07:14:01;;;;;;;7.22;6.18;;;11.70;86.60;;;;;;5060169;28;20480;-72
2022/11/16 07:16:27;;;;;;;9.07;6.95;;;11.70;86.40;;;;;;5094202;28;20044;-72
2022/11/16 07:18:55;;;;;;;9.02;7.22;;;11.70;86.20;;;;;;5077386;28;20376;-73
2022/11/16 07:21:21;;;;;;;9.77;7.43;;;11.70;86.10;;;;;;5077461;28;20044;-73
2022/11/16 07:23:46;;;;;;;11.40;8.10;;;11.70;85.90;;;;;;5094053;28;20449;-73
2022/11/16 07:26:12;;;;;;;9.52;8.23;;;11.60;85.70;;;;;;5093978;28;20058;-72
2022/11/16 07:28:38;;;;;;;11.02;9.32;;;11.60;85.70;;;;;;5076997;28;20039;-72
2022/11/16 07:31:05;;;;;;;11.30;9.77;;;11.60;85.70;;;;;;5093996;28;20068;-72
2022/11/16 07:33:31;;;;;;;12.45;9.77;;;11.60;85.70;;;;;;5093847;28;20399;-72
2022/11/16 07:36:06;;;;;;;13.52;10.77;;;11.60;85.70;;;;;;5093757;28;20040;-72
2022/11/16 07:38:32;;;;;;;13.80;11.45;;;11.60;85.80;;;;;;5076769;28;20036;-72
2022/11/16 07:41:00;;;;;;;12.68;11.35;;;11.60;85.80;;;;;;5076879;28;20043;-72
2022/11/16 07:43:31;;;;;;;12.18;10.98;;;11.60;85.80;;;;;;5093547;28;20063;-72
2022/11/16 07:46:05;;;;;;;15.60;12.13;;;11.50;85.80;;;;;;5093767;28;20430;-72
2022/11/16 07:48:33;;;;;;;14.23;11.63;;;11.50;85.90;;;;;;5076703;28;20425;-72
2022/11/16 07:51:07;;;;;;;14.43;12.10;;;11.50;85.80;;;;;;5093219;28;20059;-72
2022/11/16 07:53:33;;;;;;;13.00;11.50;;;11.50;86.30;;;;;;5093507;28;20475;-72
2022/11/16 07:55:59;;;;;;;17.92;12.35;;;11.50;85.80;;;;;;5093787;28;20040;-72
2022/11/16 07:58:27;;;;;;;15.15;12.18;;;11.50;85.90;;;;;;5093695;28;20106;-72
2022/11/16 08:00:53;;;;;;;13.32;11.88;;;11.50;85.90;;;;;;5077125;28;20097;-71
2022/11/16 08:03:18;;;;;;;14.43;10.68;;;11.50;85.90;;;;;;5059305;28;20040;-72
2022/11/16 08:05:45;;;;;;;15.70;11.65;;;11.50;85.90;;;;;;5093344;28;20040;-72
2022/11/16 08:08:11;;;;;;;14.63;11.02;;;11.50;86.00;;;;;;5076420;28;20040;-72
2022/11/16 08:10:37;;;;;;;13.48;10.80;;;11.50;86.00;;;;;;5076521;28;20383;-72
2022/11/16 08:13:03;;;;;;;13.30;11.27;;;11.40;86.00;;;;;;5076025;28;20036;-72
2022/11/16 08:15:29;;;;;;;14.70;10.70;;;11.50;86.60;;;;;;5093303;28;20032;-72
2022/11/16 08:17:57;;;;;;;11.23;10.05;;;11.50;86.10;;;;;;5075973;28;20036;-72
2022/11/16 08:20:23;;;;;;;14.55;11.18;;;11.40;86.20;;;;;;5076144;28;20036;-72
2022/11/16 08:22:48;;;;;;;12.07;10.55;;;11.40;86.20;;;;;;5076056;28;20502;-72
2022/11/16 08:25:15;;;;;;;16.02;10.80;;;11.40;86.20;;;;;;5092549;28;20044;-72
2022/11/16 08:27:40;;;;;;;14.95;11.00;;;11.40;86.30;;;;;;5093150;28;20051;-72
2022/11/16 08:30:10;;;;;;;13.93;10.40;;;11.50;86.30;;;;;;5093079;28;20368;-72
2022/11/16 08:32:36;;;;;;;15.48;11.60;;;11.40;86.30;;;;;;5092630;28;20036;-72
2022/11/16 08:35:02;;;;;;;16.58;11.50;;;11.50;86.40;;;;;;5092708;28;20496;-72
2022/11/16 08:37:27;;;;;;;14.40;10.93;;;11.50;86.50;;;;;;5075852;28;20072;-72
2022/11/16 08:39:54;;;;;;;14.20;11.40;;;11.50;86.50;;;;;;5075977;28;20482;-72
2022/11/16 08:42:20;;;;;;;15.90;11.27;;;11.50;86.60;;;;;;5092894;28;20040;-72
2022/11/16 08:44:45;;;;;;;15.35;12.05;;;11.50;86.70;;;;;;5075422;28;20046;-72
2022/11/16 08:47:11;;;;;;;14.63;11.52;;;11.50;86.70;;;;;;5092644;28;20123;-72
2022/11/16 08:49:37;;;;;;;16.92;12.32;;;11.50;86.70;;;;;;5075257;28;20575;-72
2022/11/16 08:52:03;;;;;;;18.15;13.25;;;11.60;86.90;;;;;;5092485;28;20498;-72
2022/11/16 08:54:29;;;;;;;16.73;12.60;;;11.60;87.00;;;;;;5094044;28;20040;-72
2022/11/16 08:56:54;;;;;;;15.68;12.30;;;11.60;87.10;;;;;;5075537;28;20043;-72
2022/11/16 08:59:20;;;;;;;18.58;13.68;;;11.70;87.30;;;;;;5092165;28;20040;-71
2022/11/16 09:01:46;;;;;;;16.67;12.23;;;11.70;87.30;;;;;;5075050;28;20083;-72
2022/11/16 09:04:11;;;;;;;17.35;13.10;;;11.70;87.30;;;;;;5092137;28;20063;-71
2022/11/16 09:06:37;;;;;;;17.17;12.98;;;11.70;87.70;;;;;;5092051;28;20036;-71
2022/11/16 09:09:03;;;;;;;14.13;12.02;;;11.70;87.30;;;;;;5092364;28;20036;-71
2022/11/16 09:11:29;;;;;;;16.65;12.57;;;11.80;87.90;;;;;;5092006;28;20046;-75
2022/11/16 09:13:55;;;;;;;15.82;12.55;;;11.80;87.40;;;;;;5055052;28;20036;-71
2022/11/16 09:16:22;;;;;;;14.65;11.63;;;11.80;87.30;;;;;;5089170;28;20048;-72
2022/11/16 09:18:49;;;;;;;16.50;13.07;;;11.90;87.70;;;;;;5079030;28;20049;-71
2022/11/16 09:21:22;;;;;;;15.73;12.63;;;11.90;87.30;;;;;;5074706;28;20047;-71
2022/11/16 09:23:49;;;;;;;17.67;12.73;;;11.90;87.30;;;;;;5090889;28;20067;-71
2022/11/16 09:26:19;;;;;;;16.58;13.70;;;11.90;87.60;;;;;;5091532;28;20097;-71
2022/11/16 09:28:45;;;;;;;15.07;13.10;;;11.90;87.10;;;;;;5074720;28;20032;-71
2022/11/16 09:31:10;;;;;;;21.60;13.55;;;12.00;87.10;;;;;;5091660;28;20044;-71
2022/11/16 09:33:36;;;;;;;18.20;12.73;;;12.00;87.10;;;;;;5074523;28;20391;-72
2022/11/16 09:36:07;;;;;;;17.00;12.18;;;12.10;87.10;;;;;;5075174;28;20415;-71
2022/11/16 09:38:38;;;;;;;16.17;11.18;;;12.10;87.10;;;;;;5091840;28;20123;-71
2022/11/16 09:41:34;;;;;;;16.23;10.27;;;12.20;87.00;;;;;;5075879;28;20410;-71
2022/11/16 09:44:08;;;;;;;13.30;9.98;;;12.20;86.70;;;;;;5091524;28;20046;-72
2022/11/16 09:46:45;;;;;;;14.50;10.57;;;12.20;86.30;;;;;;5074917;28;20399;-72
2022/11/16 09:49:25;;;;;;;15.68;12.18;;;12.20;86.00;;;;;;5091301;28;20105;-72
2022/11/16 09:51:55;;;;;;;13.15;10.02;;;12.30;86.00;;;;;;5074392;28;20051;-72
2022/11/16 09:54:26;;;;;;;16.13;10.40;;;12.30;86.00;;;;;;5084489;28;20037;-72
2022/11/16 09:56:56;;;;;;;16.85;10.60;;;12.40;85.90;;;;;;5072252;28;20039;-72
2022/11/16 09:59:35;;;;;;;13.35;9.73;;;12.50;85.70;;;;;;5074653;28;20036;-72
2022/11/16 10:02:25;;;;;;;10.88;8.52;;;12.50;85.50;;;;;;5091380;28;20137;-72
2022/11/16 10:04:56;;;;;;;11.82;9.23;;;12.60;85.10;;;;;;5074342;28;20067;-72
2022/11/16 10:07:39;;;;;;;12.10;9.02;;;12.60;84.90;;;;;;5091395;28;20047;-72
2022/11/16 10:10:12;;;;;;;10.65;8.30;;;12.70;84.30;;;;;;5091990;28;20047;-79
2022/11/16 10:12:47;;;;;;;15.95;8.55;;;12.70;83.70;;;;;;5075194;28;20032;-79
2022/11/16 10:15:28;;;;;;;12.50;8.55;;;12.70;83.40;;;;;;5074959;28;20040;-79
2022/11/16 10:18:05;;;;;;;14.27;8.63;;;12.80;83.10;;;;;;5092181;28;20040;-79
2022/11/16 10:20:56;;;;;;;13.05;8.52;;;12.80;82.60;;;;;;5092001;28;20036;-80
2022/11/16 10:23:49;;;;;;;14.70;8.00;;;12.80;81.40;;;;;;5092191;28;20387;-79
2022/11/16 10:26:21;;;;;;;12.98;6.40;;;12.80;81.40;;;;;;5091470;28;20254;-79
2022/11/16 10:28:49;;;;;;;14.65;6.68;;;12.80;81.10;;;;;;5074871;28;20028;-79
2022/11/16 10:31:28;;;;;;;10.05;6.93;;;12.80;80.70;;;;;;5074729;28;20079;-79
2022/11/16 10:33:56;;;;;;;14.75;7.55;;;12.90;80.20;;;;;;5091722;28;20028;-79
2022/11/16 10:36:26;;;;;;;6.95;6.22;;;12.80;79.70;;;;;;5095675;28;20043;-80
2022/11/16 10:38:55;;;;;;;10.43;6.80;;;12.80;79.30;;;;;;5096002;28;20097;-80
2022/11/16 10:41:38;;;;;;;8.75;6.28;;;12.80;79.20;;;;;;5095719;28;20503;-80
2022/11/16 10:44:17;;;;;;;9.30;6.40;;;12.80;79.10;;;;;;5095894;28;20438;-80
2022/11/16 10:46:52;;;;;;;12.70;5.85;;;12.80;79.10;;;;;;5078777;28;20549;-80
2022/11/16 10:49:17;;;;;;;9.98;5.45;;;12.80;78.70;;;;;;5095323;28;20040;-80
2022/11/16 10:51:43;;;;;;;9.82;5.32;;;12.80;78.40;;;;;;5095377;28;20101;-80
2022/11/16 10:54:13;;;;;;;10.40;4.47;;;12.70;78.00;;;;;;5095667;28;20032;-80
2022/11/16 10:56:44;;;;;;;9.48;4.97;;;12.80;77.70;;;;;;5078503;28;20040;-80
2022/11/16 10:59:16;;;;;;;11.40;4.68;;;12.70;77.40;;;;;;5094547;28;20052;-80
2022/11/16 11:01:49;;;;;;;9.73;4.57;;;12.70;77.40;;;;;;5077749;28;20070;-80
2022/11/16 11:04:26;;;;;;;12.68;4.97;;;12.70;77.60;;;;;;5094523;28;20044;-80
2022/11/16 11:07:16;;;;;;;9.68;4.65;;;12.70;77.50;;;;;;5094277;28;20066;-81
2022/11/16 11:09:42;;;;;;;10.32;4.10;;;12.60;77.70;;;;;;5070122;28;20044;-81
2022/11/16 11:14:59;;;;;;;12.20;4.85;;;12.60;77.70;;;;;;5094869;28;20046;-81
2022/11/16 11:17:24;;;;;;;10.98;3.38;;;12.60;78.00;;;;;;5095172;28;20040;-81
2022/11/16 11:20:05;;;;;;;7.75;3.30;;;12.50;77.70;;;;;;5095054;28;20040;-81
2022/11/16 11:22:41;;;;;;;7.93;3.35;;;12.50;77.20;;;;;;5095149;28;20081;-80
2022/11/16 11:25:20;;;;;;;8.65;2.92;;;12.50;77.40;;;;;;5094905;28;20043;-81
2022/11/16 11:27:46;;;;;;;12.10;3.28;;;12.50;77.50;;;;;;5070104;28;20491;-81
2022/11/16 11:30:21;;;;;;;10.85;4.10;;;12.50;77.70;;;;;;5077795;28;20051;-81
2022/11/16 11:32:47;;;;;;;9.82;3.47;;;12.40;77.60;;;;;;5074625;28;20480;-81
2022/11/16 11:35:25;;;;;;;8.05;3.15;;;12.50;77.60;;;;;;5091739;28;20036;-80
2022/11/16 11:37:54;;;;;;;7.60;3.05;;;12.40;77.40;;;;;;5074499;28;20047;-81
2022/11/16 11:40:25;;;;;;;6.13;2.80;;;12.50;77.60;;;;;;5074628;28;20040;-81
2022/11/16 11:42:52;;;;;;;12.27;3.55;;;12.50;77.10;;;;;;5091622;28;20043;-81
2022/11/16 11:45:22;;;;;;;9.75;3.00;;;12.40;76.60;;;;;;5095454;28;20039;-81
2022/11/16 11:48:01;;;;;;;10.38;3.00;;;12.40;76.20;;;;;;5093819;28;20071;-82
2022/11/16 11:50:39;;;;;;;10.13;3.42;;;12.30;76.10;;;;;;5094222;28;20051;-81
2022/11/16 11:53:44;;;;;;;12.57;3.45;;;12.20;76.40;;;;;;5087265;28;20036;-81
2022/11/16 11:56:11;;;;;;;;;;;12.20;76.70;;;;;;5075359;28;20059;-81
2022/11/16 11:58:38;;;;;;;13.77;3.10;;;12.20;76.90;;;;;;5077547;28;19916;-81
2022/11/16 12:01:43;;;;;;;10.07;3.92;;;12.20;77.20;;;;;;5094572;28;20365;-81
2022/11/16 12:04:46;;;;;;;15.55;3.28;;;12.20;77.10;;;;;;5099284;28;20106;-82
2022/11/16 12:07:21;;;;;;;15.77;4.50;;;12.20;77.10;;;;;;5073904;28;20040;-81
2022/11/16 12:10:05;;;;;;;9.20;3.20;;;12.10;77.30;;;;;;5073852;28;20047;-81
2022/11/16 12:12:47;;;;;;;10.50;2.67;;;12.10;77.40;;;;;;5088178;28;20078;-81
2022/11/16 12:16:01;;;;;;;10.93;3.80;;;12.10;77.50;;;;;;5094076;28;20042;-82
2022/11/16 12:18:44;;;;;;;15.95;4.03;;;12.10;77.00;;;;;;5073655;28;20037;-81
2022/11/16 12:21:21;;;;;;;9.20;3.00;;;12.10;77.00;;;;;;5075428;28;20518;-82
2022/11/16 12:23:46;;;;;;;11.35;3.40;;;12.20;76.50;;;;;;5077184;28;20352;-82
2022/11/16 12:26:37;;;;;;;10.85;3.10;;;12.20;76.20;;;;;;5077184;28;20050;-81
2022/11/16 12:29:31;;;;;;;9.40;2.85;;;12.20;75.90;;;;;;5076793;28;20032;-82
2022/11/16 12:32:18;;;;;;;7.07;2.50;;;12.20;75.80;;;;;;5093528;28;20111;-82
2022/11/16 12:35:21;;;;;;;11.45;3.00;;;12.20;76.10;;;;;;5083105;28;20044;-80
2022/11/16 12:38:20;;;;;;;9.68;2.75;;;12.20;76.00;;;;;;5060597;28;20475;-81
2022/11/16 12:41:22;;;;;;;12.75;3.45;;;12.30;76.30;;;;;;5076677;28;20455;-82
2022/11/16 12:44:05;;;;;;;10.30;2.92;;;12.30;76.20;;;;;;5093303;28;20040;-81
2022/11/16 12:47:08;;;;;;;11.23;2.70;;;12.30;76.40;;;;;;5093697;28;20403;-87
2022/11/16 12:49:58;;;;;;;9.75;2.63;;;12.30;76.30;;;;;;5076232;28;20070;-88
2022/11/16 12:52:55;;;;;;;10.57;3.10;;;12.40;76.10;;;;;;5077084;28;20079;-88
2022/11/16 12:55:41;;;;;;;12.68;3.25;;;12.40;76.00;;;;;;5077160;28;20083;-88
2022/11/16 12:58:19;;;;;;;8.95;2.90;;;12.40;75.90;;;;;;5076767;28;20066;-87
2022/11/16 13:01:17;;;;;;;7.25;2.20;;;12.40;75.80;;;;;;5077036;28;20036;-89
2022/11/16 13:03:48;;;;;;;10.52;3.20;;;12.40;75.80;;;;;;5065616;28;20048;-89
2022/11/16 13:06:35;;;;;;;11.00;3.65;;;12.40;75.70;;;;;;5077514;28;20051;-87
2022/11/16 13:09:15;;;;;;;11.18;2.65;;;12.40;75.50;;;;;;5076401;28;20032;-87
2022/11/16 13:11:50;;;;;;;7.13;2.50;;;12.40;75.40;;;;;;5076563;28;20042;-88
2022/11/16 13:14:20;;;;;;;10.23;3.45;;;12.50;75.30;;;;;;5110699;28;20040;-86
2022/11/16 13:16:48;;;;;;;9.73;2.58;;;12.40;75.20;;;;;;5076832;28;20058;-88
2022/11/16 13:19:15;;;;;;;10.85;2.95;;;12.40;75.10;;;;;;5094133;28;20046;-81
2022/11/16 13:22:09;;;;;;;13.02;2.63;;;12.40;74.90;;;;;;5076233;28;20426;-81
2022/11/16 13:24:46;;;;;;;8.85;2.15;;;12.40;74.50;;;;;;5092451;28;20143;-80
2022/11/16 13:27:23;;;;;;;9.55;2.30;;;12.40;74.60;;;;;;5075940;28;20044;-80
2022/11/16 13:30:40;;;;;;;8.02;2.63;;;12.50;74.20;;;;;;5076030;28;20047;-81
2022/11/16 13:33:17;;;;;;;9.38;2.25;;;12.50;74.10;;;;;;5074436;28;20044;-81
2022/11/16 13:35:43;;;;;;;9.60;2.20;;;12.50;74.20;;;;;;5057963;28;20064;-81
2022/11/16 13:38:12;;;;;;;10.82;2.60;;;12.50;74.10;;;;;;5049484;28;20473;-80
2022/11/16 13:40:38;;;;;;;9.10;2.03;;;12.40;74.00;;;;;;5075727;28;20038;-81
2022/11/16 13:43:09;;;;;;;15.05;2.72;;;12.50;73.70;;;;;;5058823;28;20058;-81
2022/11/16 13:45:55;;;;;;;10.20;2.80;;;12.50;73.70;;;;;;5075328;28;20067;-81
2022/11/16 13:48:33;;;;;;;8.88;2.22;;;12.50;73.20;;;;;;5075714;28;20051;-81